sensor_id;sensor_type;location;lat;lon;timestamp;pressure;altitude;pressure_sealevel;temperature;humidity
14117;BME280;7137;51.436;6.544;2022-12-29T00:01:28;99857.50;;;11.61;99.38
14117;BME280;7137;51.436;6.544;2022-12-29T00:04:31;99847.81;;;11.46;100.00
14117;BME280;7137;51.436;6.544;2022-12-29T00:07:33;99835.94;;;11.39;100.00
14117;BME280;7137;51.436;6.544;2022-12-29T00:10:34;99837.19;;;11.49;100.00
14117;BME280;7137;51.436;6.544;2022-12-29T00:13:36;99835.66;;;11.45;100.00
14117;BME280;7137;51.436;6.544;2022-12-29T00:16:55;99828.44;;;11.50;100.00
14117;BME280;7137;51.436;6.544;2022-12-29T00:19:58;99820.06;;;11.43;100.00
14117;BME280;7137;51.436;6.544;2022-12-29T00:23:31;99818.03;;;11.31;100.00
14117;BME280;7137;51.436;6.544;2022-12-29T00:26:53;99817.88;;;11.34;100.00
14117;BME280;7137;51.436;6.544;2022-12-29T00:30:16;99803.81;;;11.37;100.00
14117;BME280;7137;51.436;6.544;2022-12-29T00:33:35;99809.09;;;11.35;100.00
14117;BME280;7137;51.436;6.544;2022-12-29T00:36:56;99799.34;;;11.39;100.00
14117;BME280;7137;51.436;6.544;2022-12-29T00:39:57;99799.66;;;11.50;100.00
14117;BME280;7137;51.436;6.544;2022-12-29T00:43:16;99795.44;;;11.47;100.00
14117;BME280;7137;51.436;6.544;2022-12-29T00:46:42;99795.75;;;11.41;100.00
14117;BME280;7137;51.436;6.544;2022-12-29T00:49:44;99797.69;;;11.55;100.00
14117;BME280;7137;51.436;6.544;2022-12-29T00:52:46;99788.84;;;11.40;100.00
14117;BME280;7137;51.436;6.544;2022-12-29T00:55:48;99795.34;;;11.49;100.00
14117;BME280;7137;51.436;6.544;2022-12-29T00:58:49;99796.59;;;11.42;100.00
14117;BME280;7137;51.436;6.544;2022-12-29T01:01:52;99783.97;;;11.33;100.00
14117;BME280;7137;51.436;6.544;2022-12-29T01:04:53;99767.44;;;11.32;100.00
14117;BME280;7137;51.436;6.544;2022-12-29T01:07:56;99763.72;;;11.36;100.00
14117;BME280;7137;51.436;6.544;2022-12-29T01:10:58;99762.81;;;11.37;100.00
14117;BME280;7137;51.436;6.544;2022-12-29T01:13:59;99767.84;;;11.42;100.00
14117;BME280;7137;51.436;6.544;2022-12-29T01:17:00;99774.75;;;11.60;100.00
14117;BME280;7137;51.436;6.544;2022-12-29T01:20:03;99765.19;;;11.59;100.00
14117;BME280;7137;51.436;6.544;2022-12-29T01:23:06;99757.81;;;11.50;100.00
14117;BME280;7137;51.436;6.544;2022-12-29T01:26:08;99754.91;;;11.56;99.75
14117;BME280;7137;51.436;6.544;2022-12-29T01:33:06;99752.44;;;11.70;98.73
14117;BME280;7137;51.436;6.544;2022-12-29T01:36:10;99755.28;;;11.83;97.13
14117;BME280;7137;51.436;6.544;2022-12-29T01:39:13;99745.78;;;11.80;96.94
14117;BME280;7137;51.436;6.544;2022-12-29T01:42:16;99749.13;;;11.84;96.20
14117;BME280;7137;51.436;6.544;2022-12-29T01:45:18;99739.94;;;11.75;96.96
14117;BME280;7137;51.436;6.544;2022-12-29T01:48:19;99737.94;;;11.80;95.03
14117;BME280;7137;51.436;6.544;2022-12-29T01:51:22;99736.72;;;11.87;95.70
14117;BME280;7137;51.436;6.544;2022-12-29T01:54:28;99735.19;;;11.83;95.60
14117;BME280;7137;51.436;6.544;2022-12-29T01:57:34;99741.28;;;11.84;94.54
14117;BME280;7137;51.436;6.544;2022-12-29T02:00:37;99745.56;;;11.85;95.32
14117;BME280;7137;51.436;6.544;2022-12-29T02:03:39;99755.03;;;11.87;94.03
14117;BME280;7137;51.436;6.544;2022-12-29T02:06:43;99744.97;;;11.80;93.67
14117;BME280;7137;51.436;6.544;2022-12-29T02:09:48;99744.66;;;11.86;93.21
14117;BME280;7137;51.436;6.544;2022-12-29T02:12:51;99745.31;;;11.89;92.59
14117;BME280;7137;51.436;6.544;2022-12-29T02:15:59;99736.47;;;11.92;91.34
14117;BME280;7137;51.436;6.544;2022-12-29T02:19:27;99747.03;;;11.91;91.62
14117;BME280;7137;51.436;6.544;2022-12-29T02:22:43;99752.09;;;11.94;92.48
14117;BME280;7137;51.436;6.544;2022-12-29T02:26:12;99740.84;;;11.92;91.81
14117;BME280;7137;51.436;6.544;2022-12-29T02:29:37;99733.63;;;11.97;91.27
14117;BME280;7137;51.436;6.544;2022-12-29T02:32:50;99724.41;;;11.89;90.40
14117;BME280;7137;51.436;6.544;2022-12-29T02:39:54;99708.34;;;11.96;91.41
14117;BME280;7137;51.436;6.544;2022-12-29T02:43:02;99724.13;;;11.94;89.26
14117;BME280;7137;51.436;6.544;2022-12-29T02:46:12;99704.97;;;11.94;90.76
14117;BME280;7137;51.436;6.544;2022-12-29T02:49:20;99716.19;;;11.96;90.02
14117;BME280;7137;51.436;6.544;2022-12-29T02:52:27;99716.19;;;11.96;89.39
14117;BME280;7137;51.436;6.544;2022-12-29T02:55:32;99710.28;;;11.92;90.57
14117;BME280;7137;51.436;6.544;2022-12-29T02:58:32;99711.06;;;11.94;89.81
14117;BME280;7137;51.436;6.544;2022-12-29T03:01:48;99684.47;;;11.86;91.96
14117;BME280;7137;51.436;6.544;2022-12-29T03:05:26;99696.88;;;11.82;92.39
14117;BME280;7137;51.436;6.544;2022-12-29T03:08:38;99690.63;;;11.85;92.80
14117;BME280;7137;51.436;6.544;2022-12-29T03:11:48;99692.63;;;11.80;91.83
14117;BME280;7137;51.436;6.544;2022-12-29T03:15:12;99708.53;;;11.75;93.33
14117;BME280;7137;51.436;6.544;2022-12-29T03:18:42;99685.69;;;11.79;92.97
14117;BME280;7137;51.436;6.544;2022-12-29T03:21:49;99696.72;;;11.85;91.64
14117;BME280;7137;51.436;6.544;2022-12-29T03:25:14;99686.81;;;11.91;92.77
14117;BME280;7137;51.436;6.544;2022-12-29T03:28:19;99678.50;;;12.00;90.89
14117;BME280;7137;51.436;6.544;2022-12-29T03:31:23;99686.56;;;11.95;90.62
14117;BME280;7137;51.436;6.544;2022-12-29T03:34:26;99694.59;;;11.92;90.21
14117;BME280;7137;51.436;6.544;2022-12-29T03:37:35;99684.78;;;11.96;89.26
14117;BME280;7137;51.436;6.544;2022-12-29T03:40:38;99686.75;;;12.08;90.31
14117;BME280;7137;51.436;6.544;2022-12-29T03:43:42;99686.75;;;11.92;93.17
14117;BME280;7137;51.436;6.544;2022-12-29T03:46:43;99674.66;;;11.56;97.07
14117;BME280;7137;51.436;6.544;2022-12-29T03:49:46;99679.78;;;11.42;99.18
14117;BME280;7137;51.436;6.544;2022-12-29T03:52:49;99657.50;;;11.51;98.77
14117;BME280;7137;51.436;6.544;2022-12-29T03:55:51;99660.66;;;11.57;98.00
14117;BME280;7137;51.436;6.544;2022-12-29T03:58:52;99658.63;;;11.63;98.01
14117;BME280;7137;51.436;6.544;2022-12-29T04:01:54;99640.75;;;11.55;99.27
14117;BME280;7137;51.436;6.544;2022-12-29T04:04:55;99649.28;;;11.58;99.63
14117;BME280;7137;51.436;6.544;2022-12-29T04:07:58;99632.75;;;11.58;99.93
14117;BME280;7137;51.436;6.544;2022-12-29T04:11:00;99639.75;;;11.57;99.09
14117;BME280;7137;51.436;6.544;2022-12-29T04:14:01;99640.69;;;11.39;100.00
14117;BME280;7137;51.436;6.544;2022-12-29T04:17:03;99633.69;;;11.40;99.98
14117;BME280;7137;51.436;6.544;2022-12-29T04:20:06;99627.06;;;11.50;99.46
14117;BME280;7137;51.436;6.544;2022-12-29T04:23:27;99637.50;;;11.50;99.85
14117;BME280;7137;51.436;6.544;2022-12-29T04:26:28;99638.63;;;11.62;98.70
14117;BME280;7137;51.436;6.544;2022-12-29T04:29:30;99631.63;;;11.62;96.48
14117;BME280;7137;51.436;6.544;2022-12-29T04:32:31;99638.56;;;11.63;96.84
14117;BME280;7137;51.436;6.544;2022-12-29T04:35:33;99653.09;;;11.69;95.88
14117;BME280;7137;51.436;6.544;2022-12-29T04:38:35;99661.09;;;11.66;95.91
14117;BME280;7137;51.436;6.544;2022-12-29T04:41:37;99662.28;;;11.76;95.89
14117;BME280;7137;51.436;6.544;2022-12-29T04:44:39;99668.84;;;11.84;94.36
14117;BME280;7137;51.436;6.544;2022-12-29T04:47:40;99682.22;;;12.11;93.54
14117;BME280;7137;51.436;6.544;2022-12-29T04:50:42;99671.34;;;11.53;96.24
14117;BME280;7137;51.436;6.544;2022-12-29T04:53:44;99699.59;;;11.12;97.76
14117;BME280;7137;51.436;6.544;2022-12-29T04:56:46;99667.31;;;10.78;100.00
14117;BME280;7137;51.436;6.544;2022-12-29T04:59:47;99686.19;;;10.66;100.00
14117;BME280;7137;51.436;6.544;2022-12-29T05:02:49;99688.84;;;10.47;100.00
14117;BME280;7137;51.436;6.544;2022-12-29T05:05:53;99704.78;;;10.41;100.00
14117;BME280;7137;51.436;6.544;2022-12-29T05:08:55;99712.84;;;10.36;100.00
14117;BME280;7137;51.436;6.544;2022-12-29T05:11:57;99682.72;;;10.48;100.00
14117;BME280;7137;51.436;6.544;2022-12-29T05:14:59;99694.81;;;10.32;100.00
14117;BME280;7137;51.436;6.544;2022-12-29T05:18:00;99704.03;;;10.39;100.00
14117;BME280;7137;51.436;6.544;2022-12-29T05:21:02;99687.44;;;10.40;100.00
14117;BME280;7137;51.436;6.544;2022-12-29T05:24:06;99680.44;;;10.40;100.00
14117;BME280;7137;51.436;6.544;2022-12-29T05:27:08;99671.16;;;10.35;100.00
14117;BME280;7137;51.436;6.544;2022-12-29T05:30:10;99678.31;;;10.31;100.00
14117;BME280;7137;51.436;6.544;2022-12-29T05:33:12;99682.19;;;10.42;100.00
14117;BME280;7137;51.436;6.544;2022-12-29T05:36:13;99691.81;;;10.39;97.51
14117;BME280;7137;51.436;6.544;2022-12-29T05:39:20;99699.44;;;10.44;94.82
14117;BME280;7137;51.436;6.544;2022-12-29T05:42:22;99718.91;;;10.56;92.37
14117;BME280;7137;51.436;6.544;2022-12-29T05:45:23;99715.09;;;10.63;90.50
14117;BME280;7137;51.436;6.544;2022-12-29T05:48:25;99723.44;;;10.69;90.21
14117;BME280;7137;51.436;6.544;2022-12-29T05:51:26;99718.09;;;10.73;90.36
14117;BME280;7137;51.436;6.544;2022-12-29T05:54:29;99717.38;;;10.69;90.68
14117;BME280;7137;51.436;6.544;2022-12-29T05:57:30;99715.25;;;10.77;90.84
14117;BME280;7137;51.436;6.544;2022-12-29T06:00:32;99732.63;;;10.78;92.11
14117;BME280;7137;51.436;6.544;2022-12-29T06:03:33;99743.06;;;10.78;91.54
14117;BME280;7137;51.436;6.544;2022-12-29T06:06:34;99749.63;;;10.87;91.11
14117;BME280;7137;51.436;6.544;2022-12-29T06:09:37;99754.00;;;10.86;91.43
14117;BME280;7137;51.436;6.544;2022-12-29T06:12:39;99761.47;;;10.94;91.18
14117;BME280;7137;51.436;6.544;2022-12-29T06:15:41;99761.09;;;11.02;91.88
14117;BME280;7137;51.436;6.544;2022-12-29T06:18:42;99773.25;;;11.20;91.16
14117;BME280;7137;51.436;6.544;2022-12-29T06:21:43;99784.03;;;11.31;91.25
14117;BME280;7137;51.436;6.544;2022-12-29T06:24:46;99780.75;;;11.27;91.28
14117;BME280;7137;51.436;6.544;2022-12-29T06:27:48;99772.09;;;11.25;90.65
14117;BME280;7137;51.436;6.544;2022-12-29T06:30:49;99772.09;;;11.25;90.85
14117;BME280;7137;51.436;6.544;2022-12-29T06:33:51;99774.88;;;11.22;90.22
14117;BME280;7137;51.436;6.544;2022-12-29T06:36:52;99781.94;;;11.20;89.88
14117;BME280;7137;51.436;6.544;2022-12-29T06:39:55;99784.03;;;11.31;90.14
14117;BME280;7137;51.436;6.544;2022-12-29T06:42:57;99786.34;;;11.37;89.74
14117;BME280;7137;51.436;6.544;2022-12-29T06:45:58;99780.50;;;11.32;89.89
14117;BME280;7137;51.436;6.544;2022-12-29T06:49:00;99794.50;;;11.31;89.59
14117;BME280;7137;51.436;6.544;2022-12-29T06:52:01;99790.97;;;11.49;88.96
14117;BME280;7137;51.436;6.544;2022-12-29T06:55:06;99787.50;;;11.49;88.55
14117;BME280;7137;51.436;6.544;2022-12-29T06:58:08;99791.88;;;11.48;88.06
14117;BME280;7137;51.436;6.544;2022-12-29T07:01:09;99793.50;;;11.34;89.18
14117;BME280;7137;51.436;6.544;2022-12-29T07:04:11;99794.75;;;11.44;88.65
14117;BME280;7137;51.436;6.544;2022-12-29T07:07:12;99799.56;;;11.34;88.89
14117;BME280;7137;51.436;6.544;2022-12-29T07:10:15;99796.72;;;11.39;88.08
14117;BME280;7137;51.436;6.544;2022-12-29T07:13:17;99804.81;;;11.34;88.82
14117;BME280;7137;51.436;6.544;2022-12-29T07:16:18;99798.06;;;11.11;89.15
14117;BME280;7137;51.436;6.544;2022-12-29T07:19:20;99799.63;;;11.15;88.45
14117;BME280;7137;51.436;6.544;2022-12-29T07:22:21;99810.16;;;11.14;88.15
14117;BME280;7137;51.436;6.544;2022-12-29T07:25:24;99805.16;;;11.09;88.18
14117;BME280;7137;51.436;6.544;2022-12-29T07:28:26;99805.63;;;11.17;87.69
14117;BME280;7137;51.436;6.544;2022-12-29T07:31:27;99817.53;;;11.06;87.64
14117;BME280;7137;51.436;6.544;2022-12-29T07:34:29;99809.25;;;11.15;87.52
14117;BME280;7137;51.436;6.544;2022-12-29T07:37:30;99814.94;;;11.23;86.38
14117;BME280;7137;51.436;6.544;2022-12-29T07:40:33;99815.84;;;11.22;84.76
14117;BME280;7137;51.436;6.544;2022-12-29T07:43:35;99818.56;;;11.20;84.53
14117;BME280;7137;51.436;6.544;2022-12-29T07:46:36;99819.81;;;11.12;84.16
14117;BME280;7137;51.436;6.544;2022-12-29T07:49:38;99830.28;;;11.12;83.29
14117;BME280;7137;51.436;6.544;2022-12-29T07:52:39;99829.94;;;11.19;82.40
14117;BME280;7137;51.436;6.544;2022-12-29T07:55:42;99838.00;;;11.15;82.97
14117;BME280;7137;51.436;6.544;2022-12-29T07:58:43;99842.81;;;11.05;83.36
14117;BME280;7137;51.436;6.544;2022-12-29T08:01:45;99863.50;;;11.10;82.81
14117;BME280;7137;51.436;6.544;2022-12-29T08:04:46;99837.44;;;11.08;82.24
14117;BME280;7137;51.436;6.544;2022-12-29T08:07:48;99862.38;;;11.15;82.56
14117;BME280;7137;51.436;6.544;2022-12-29T08:10:51;99874.88;;;11.09;83.61
14117;BME280;7137;51.436;6.544;2022-12-29T08:13:53;99870.47;;;11.09;83.11
14117;BME280;7137;51.436;6.544;2022-12-29T08:16:54;99870.38;;;11.12;83.49
14117;BME280;7137;51.436;6.544;2022-12-29T08:19:56;99885.66;;;11.20;83.37
14117;BME280;7137;51.436;6.544;2022-12-29T08:22:58;99881.72;;;11.30;83.56
14117;BME280;7137;51.436;6.544;2022-12-29T08:26:03;99879.66;;;11.18;83.54
14117;BME280;7137;51.436;6.544;2022-12-29T08:29:05;99883.94;;;11.02;84.50
14117;BME280;7137;51.436;6.544;2022-12-29T08:32:07;99871.41;;;11.08;84.72
14117;BME280;7137;51.436;6.544;2022-12-29T08:35:08;99872.59;;;11.20;84.64
14117;BME280;7137;51.436;6.544;2022-12-29T08:38:10;99872.84;;;11.33;84.74
14117;BME280;7137;51.436;6.544;2022-12-29T08:41:13;99881.28;;;11.20;83.27
14117;BME280;7137;51.436;6.544;2022-12-29T08:44:14;99884.28;;;11.13;84.18
14117;BME280;7137;51.436;6.544;2022-12-29T08:47:16;99881.72;;;11.11;83.90
14117;BME280;7137;51.436;6.544;2022-12-29T08:50:17;99884.63;;;11.05;83.73
14117;BME280;7137;51.436;6.544;2022-12-29T08:53:19;99882.22;;;11.19;82.32
14117;BME280;7137;51.436;6.544;2022-12-29T08:56:22;99889.16;;;11.38;81.89
14117;BME280;7137;51.436;6.544;2022-12-29T08:59:24;99898.03;;;11.52;80.69
14117;BME280;7137;51.436;6.544;2022-12-29T09:02:26;99899.38;;;11.61;80.50
14117;BME280;7137;51.436;6.544;2022-12-29T09:05:28;99894.81;;;11.65;79.66
14117;BME280;7137;51.436;6.544;2022-12-29T09:08:29;99893.16;;;11.81;80.49
14117;BME280;7137;51.436;6.544;2022-12-29T09:11:32;99871.81;;;11.54;79.65
14117;BME280;7137;51.436;6.544;2022-12-29T09:14:34;99886.88;;;11.49;80.81
14117;BME280;7137;51.436;6.544;2022-12-29T09:17:35;99890.75;;;11.59;81.22
14117;BME280;7137;51.436;6.544;2022-12-29T09:20:44;99893.03;;;11.48;80.49
14117;BME280;7137;51.436;6.544;2022-12-29T09:23:45;99905.63;;;11.40;81.34
14117;BME280;7137;51.436;6.544;2022-12-29T09:26:48;99896.72;;;11.44;81.86
14117;BME280;7137;51.436;6.544;2022-12-29T09:29:50;99903.34;;;11.51;81.37
14117;BME280;7137;51.436;6.544;2022-12-29T09:32:51;99895.97;;;11.42;81.48
14117;BME280;7137;51.436;6.544;2022-12-29T09:35:55;99902.81;;;11.44;81.14
14117;BME280;7137;51.436;6.544;2022-12-29T09:38:57;99899.63;;;11.38;81.44
14117;BME280;7137;51.436;6.544;2022-12-29T09:42:04;99908.88;;;11.45;81.04
14117;BME280;7137;51.436;6.544;2022-12-29T09:45:14;99899.78;;;11.35;80.76
14117;BME280;7137;51.436;6.544;2022-12-29T09:48:19;99903.38;;;11.32;80.03
14117;BME280;7137;51.436;6.544;2022-12-29T09:51:23;99900.28;;;11.43;78.68
14117;BME280;7137;51.436;6.544;2022-12-29T09:54:36;99906.41;;;11.42;78.34
14117;BME280;7137;51.436;6.544;2022-12-29T09:57:45;99914.97;;;11.45;76.65
14117;BME280;7137;51.436;6.544;2022-12-29T10:00:51;99902.03;;;11.42;76.47
14117;BME280;7137;51.436;6.544;2022-12-29T10:03:56;99906.81;;;11.51;77.18
14117;BME280;7137;51.436;6.544;2022-12-29T10:07:02;99917.53;;;11.64;77.88
14117;BME280;7137;51.436;6.544;2022-12-29T10:10:20;99921.56;;;11.52;77.77
14117;BME280;7137;51.436;6.544;2022-12-29T10:13:35;99920.63;;;11.72;77.64
14117;BME280;7137;51.436;6.544;2022-12-29T10:16:44;99923.59;;;11.65;77.00
14117;BME280;7137;51.436;6.544;2022-12-29T10:20:00;99920.91;;;11.66;77.54
14117;BME280;7137;51.436;6.544;2022-12-29T10:23:19;99927.56;;;11.73;77.52
14117;BME280;7137;51.436;6.544;2022-12-29T10:26:27;99934.28;;;11.79;75.72
14117;BME280;7137;51.436;6.544;2022-12-29T10:29:33;99931.00;;;11.74;75.74
14117;BME280;7137;51.436;6.544;2022-12-29T10:32:39;99940.75;;;11.89;74.71
14117;BME280;7137;51.436;6.544;2022-12-29T10:35:43;99921.31;;;11.76;75.21
14117;BME280;7137;51.436;6.544;2022-12-29T10:38:52;99944.53;;;11.65;75.22
14117;BME280;7137;51.436;6.544;2022-12-29T10:41:57;99948.84;;;11.66;75.07
14117;BME280;7137;51.436;6.544;2022-12-29T10:45:06;99939.53;;;11.60;74.13
14117;BME280;7137;51.436;6.544;2022-12-29T10:48:11;99952.00;;;11.55;75.13
14117;BME280;7137;51.436;6.544;2022-12-29T10:51:21;99959.25;;;11.48;75.49
14117;BME280;7137;51.436;6.544;2022-12-29T10:54:27;99965.50;;;11.46;74.51
14117;BME280;7137;51.436;6.544;2022-12-29T10:57:32;99980.47;;;11.61;76.23
14117;BME280;7137;51.436;6.544;2022-12-29T11:00:36;99974.66;;;11.73;74.81
14117;BME280;7137;51.436;6.544;2022-12-29T11:03:56;99964.34;;;11.70;74.76
14117;BME280;7137;51.436;6.544;2022-12-29T11:07:02;99973.38;;;11.63;74.25
14117;BME280;7137;51.436;6.544;2022-12-29T11:10:18;99971.66;;;11.81;74.41
14117;BME280;7137;51.436;6.544;2022-12-29T11:13:26;99983.03;;;12.16;72.38
14117;BME280;7137;51.436;6.544;2022-12-29T11:16:31;99983.19;;;12.13;71.95
14117;BME280;7137;51.436;6.544;2022-12-29T11:19:34;99981.03;;;12.04;72.58
14117;BME280;7137;51.436;6.544;2022-12-29T11:22:43;99987.72;;;12.09;71.12
14117;BME280;7137;51.436;6.544;2022-12-29T11:25:45;99989.53;;;12.26;72.39
14117;BME280;7137;51.436;6.544;2022-12-29T11:29:11;99998.16;;;12.28;70.65
14117;BME280;7137;51.436;6.544;2022-12-29T11:32:20;99988.44;;;12.13;71.92
14117;BME280;7137;51.436;6.544;2022-12-29T11:35:34;100017.41;;;11.91;71.37
14117;BME280;7137;51.436;6.544;2022-12-29T11:38:39;99994.97;;;12.04;73.12
14117;BME280;7137;51.436;6.544;2022-12-29T11:41:51;100005.81;;;11.97;71.35
14117;BME280;7137;51.436;6.544;2022-12-29T11:44:53;100025.13;;;11.94;71.29
14117;BME280;7137;51.436;6.544;2022-12-29T11:47:58;100026.19;;;11.90;73.40
14117;BME280;7137;51.436;6.544;2022-12-29T11:51:01;100014.81;;;12.08;72.24
14117;BME280;7137;51.436;6.544;2022-12-29T11:54:03;100029.31;;;12.15;72.33
14117;BME280;7137;51.436;6.544;2022-12-29T11:57:11;100029.72;;;12.25;72.36
14117;BME280;7137;51.436;6.544;2022-12-29T12:00:16;100034.47;;;12.00;71.57
14117;BME280;7137;51.436;6.544;2022-12-29T12:03:23;100020.59;;;11.98;72.71
14117;BME280;7137;51.436;6.544;2022-12-29T12:06:27;100046.38;;;11.88;73.09
14117;BME280;7137;51.436;6.544;2022-12-29T12:09:33;100040.06;;;11.92;72.69
14117;BME280;7137;51.436;6.544;2022-12-29T12:12:40;100043.59;;;11.91;73.91
14117;BME280;7137;51.436;6.544;2022-12-29T12:15:49;100048.81;;;11.91;72.31
14117;BME280;7137;51.436;6.544;2022-12-29T12:18:56;100043.38;;;11.77;72.86
14117;BME280;7137;51.436;6.544;2022-12-29T12:22:03;100057.75;;;11.87;72.70
14117;BME280;7137;51.436;6.544;2022-12-29T12:25:13;100059.44;;;11.88;72.35
14117;BME280;7137;51.436;6.544;2022-12-29T12:28:25;100043.91;;;11.85;73.45
14117;BME280;7137;51.436;6.544;2022-12-29T12:31:41;100059.13;;;11.75;72.81
14117;BME280;7137;51.436;6.544;2022-12-29T12:34:46;100060.31;;;12.06;73.03
14117;BME280;7137;51.436;6.544;2022-12-29T12:37:59;100059.47;;;11.68;73.24
14117;BME280;7137;51.436;6.544;2022-12-29T12:41:09;100062.25;;;11.65;74.28
14117;BME280;7137;51.436;6.544;2022-12-29T12:44:18;100070.75;;;11.70;72.73
14117;BME280;7137;51.436;6.544;2022-12-29T12:47:49;100066.38;;;11.89;72.19
14117;BME280;7137;51.436;6.544;2022-12-29T12:51:00;100059.13;;;11.94;72.04
14117;BME280;7137;51.436;6.544;2022-12-29T12:54:17;100070.94;;;12.03;73.68
14117;BME280;7137;51.436;6.544;2022-12-29T12:57:27;100065.03;;;11.99;71.04
14117;BME280;7137;51.436;6.544;2022-12-29T13:00:38;100080.16;;;12.11;72.48
14117;BME280;7137;51.436;6.544;2022-12-29T13:03:55;100078.88;;;12.01;73.05
14117;BME280;7137;51.436;6.544;2022-12-29T13:07:08;100083.03;;;12.05;73.02
14117;BME280;7137;51.436;6.544;2022-12-29T13:10:23;100089.19;;;12.04;73.18
14117;BME280;7137;51.436;6.544;2022-12-29T13:13:49;100099.16;;;11.96;72.73
14117;BME280;7137;51.436;6.544;2022-12-29T13:17:00;100099.56;;;11.88;72.40
14117;BME280;7137;51.436;6.544;2022-12-29T13:20:15;100101.03;;;11.94;74.18
14117;BME280;7137;51.436;6.544;2022-12-29T13:23:27;100093.50;;;11.68;74.22
14117;BME280;7137;51.436;6.544;2022-12-29T13:26:35;100107.22;;;11.73;74.49
14117;BME280;7137;51.436;6.544;2022-12-29T13:29:47;100125.09;;;11.63;74.85
14117;BME280;7137;51.436;6.544;2022-12-29T13:32:56;100109.16;;;11.88;73.91
14117;BME280;7137;51.436;6.544;2022-12-29T13:36:04;100128.63;;;11.82;73.62
14117;BME280;7137;51.436;6.544;2022-12-29T13:39:15;100132.22;;;11.80;73.59
14117;BME280;7137;51.436;6.544;2022-12-29T13:42:19;100119.09;;;11.61;75.81
14117;BME280;7137;51.436;6.544;2022-12-29T13:45:24;100127.28;;;11.53;76.19
14117;BME280;7137;51.436;6.544;2022-12-29T13:48:35;100133.94;;;11.60;76.35
14117;BME280;7137;51.436;6.544;2022-12-29T13:51:41;100135.28;;;11.50;77.46
14117;BME280;7137;51.436;6.544;2022-12-29T13:54:57;100133.53;;;11.30;78.77
14117;BME280;7137;51.436;6.544;2022-12-29T13:58:07;100143.97;;;11.51;80.88
14117;BME280;7137;51.436;6.544;2022-12-29T14:01:14;100142.13;;;11.14;83.53
14117;BME280;7137;51.436;6.544;2022-12-29T14:04:22;100137.16;;;10.87;83.73
14117;BME280;7137;51.436;6.544;2022-12-29T14:07:25;100130.88;;;10.91;84.57
14117;BME280;7137;51.436;6.544;2022-12-29T14:10:31;100130.69;;;10.96;84.33
14117;BME280;7137;51.436;6.544;2022-12-29T14:13:37;100127.72;;;11.24;81.33
14117;BME280;7137;51.436;6.544;2022-12-29T14:16:40;100128.91;;;11.17;82.30
14117;BME280;7137;51.436;6.544;2022-12-29T14:19:43;100133.47;;;11.32;81.64
14117;BME280;7137;51.436;6.544;2022-12-29T14:22:56;100143.78;;;11.35;80.36
14117;BME280;7137;51.436;6.544;2022-12-29T14:26:10;100142.31;;;11.29;79.67
14117;BME280;7137;51.436;6.544;2022-12-29T14:32:37;100148.97;;;11.37;78.27
14117;BME280;7137;51.436;6.544;2022-12-29T14:35:42;100153.09;;;11.22;78.19
14117;BME280;7137;51.436;6.544;2022-12-29T14:38:44;100160.94;;;11.22;76.92
14117;BME280;7137;51.436;6.544;2022-12-29T14:41:47;100152.16;;;11.23;76.59
14117;BME280;7137;51.436;6.544;2022-12-29T14:44:51;100155.28;;;11.12;76.92
14117;BME280;7137;51.436;6.544;2022-12-29T14:47:53;100153.69;;;11.08;77.32
14117;BME280;7137;51.436;6.544;2022-12-29T14:50:55;100158.00;;;11.09;76.46
14117;BME280;7137;51.436;6.544;2022-12-29T14:53:57;100153.69;;;11.08;76.82
14117;BME280;7137;51.436;6.544;2022-12-29T14:57:02;100155.97;;;10.95;76.68
14117;BME280;7137;51.436;6.544;2022-12-29T15:00:14;100151.34;;;11.02;76.67
14117;BME280;7137;51.436;6.544;2022-12-29T15:03:19;100158.25;;;11.03;77.43
14117;BME280;7137;51.436;6.544;2022-12-29T15:06:29;100167.66;;;11.07;76.45
14117;BME280;7137;51.436;6.544;2022-12-29T15:09:34;100182.63;;;11.04;76.88
14117;BME280;7137;51.436;6.544;2022-12-29T15:12:41;100179.63;;;10.92;77.09
14117;BME280;7137;51.436;6.544;2022-12-29T15:15:47;100177.91;;;10.91;77.37
14117;BME280;7137;51.436;6.544;2022-12-29T15:18:48;100186.41;;;10.96;78.22
14117;BME280;7137;51.436;6.544;2022-12-29T15:21:50;100180.97;;;10.81;79.33
14117;BME280;7137;51.436;6.544;2022-12-29T15:24:54;100177.25;;;10.86;80.19
14117;BME280;7137;51.436;6.544;2022-12-29T15:28:00;100177.47;;;11.02;79.00
14117;BME280;7137;51.436;6.544;2022-12-29T15:31:04;100188.09;;;10.77;78.34
14117;BME280;7137;51.436;6.544;2022-12-29T15:34:10;100184.56;;;10.78;78.07
14117;BME280;7137;51.436;6.544;2022-12-29T15:37:18;100195.63;;;10.85;78.26
14117;BME280;7137;51.436;6.544;2022-12-29T15:40:25;100193.19;;;10.80;78.00
14117;BME280;7137;51.436;6.544;2022-12-29T15:43:47;100190.91;;;10.73;77.17
14117;BME280;7137;51.436;6.544;2022-12-29T15:46:51;100194.81;;;10.83;77.16
14117;BME280;7137;51.436;6.544;2022-12-29T15:49:55;100197.09;;;10.70;77.81
14117;BME280;7137;51.436;6.544;2022-12-29T15:53:01;100213.00;;;10.64;78.14
14117;BME280;7137;51.436;6.544;2022-12-29T15:56:06;100215.81;;;10.59;77.42
14117;BME280;7137;51.436;6.544;2022-12-29T15:59:23;100228.84;;;10.59;76.77
14117;BME280;7137;51.436;6.544;2022-12-29T16:02:26;100222.25;;;10.73;77.34
14117;BME280;7137;51.436;6.544;2022-12-29T16:05:32;100221.03;;;10.59;76.67
14117;BME280;7137;51.436;6.544;2022-12-29T16:08:36;100227.31;;;10.54;77.63
14117;BME280;7137;51.436;6.544;2022-12-29T16:11:39;100232.84;;;10.46;78.09
14117;BME280;7137;51.436;6.544;2022-12-29T16:14:45;100229.16;;;10.52;79.22
14117;BME280;7137;51.436;6.544;2022-12-29T16:17:49;100224.91;;;10.49;81.13
14117;BME280;7137;51.436;6.544;2022-12-29T16:20:53;100228.72;;;10.17;84.52
14117;BME280;7137;51.436;6.544;2022-12-29T16:23:57;100221.38;;;10.28;85.83
14117;BME280;7137;51.436;6.544;2022-12-29T16:27:06;100223.63;;;10.14;85.89
14117;BME280;7137;51.436;6.544;2022-12-29T16:30:20;100226.44;;;10.08;86.39
14117;BME280;7137;51.436;6.544;2022-12-29T16:33:35;100271.19;;;10.22;86.23
14117;BME280;7137;51.436;6.544;2022-12-29T16:36:51;100289.38;;;9.50;87.71
14117;BME280;7137;51.436;6.544;2022-12-29T16:39:53;100284.53;;;8.87;87.72
14117;BME280;7137;51.436;6.544;2022-12-29T16:42:57;100290.44;;;8.35;92.91
14117;BME280;7137;51.436;6.544;2022-12-29T16:46:21;100282.59;;;8.36;96.41